Time;durP1;ratioP1;P1;durP2;ratioP2;P2;SDS_P1;SDS_P2;PMS_P1;PMS_P2;Temp;Humidity;BMP_temperature;BMP_pressure;BME280_temperature;BME280_humidity;BME280_pressure;Samples;Min_cycle;Max_cycle;Signal;HPM_P1;HPM_P2
2022/04/30 00:02:21;;;;;;;3.95;1.30;;;18.30;99.90;;;;;;5032425;28;20187;-83
2022/04/30 00:04:52;;;;;;;3.22;1.30;;;18.30;99.90;;;;;;5031807;28;20268;-86
2022/04/30 00:07:23;;;;;;;2.20;1.30;;;18.40;99.90;;;;;;5031341;28;20249;-85
2022/04/30 00:09:54;;;;;;;2.75;1.20;;;18.40;99.90;;;;;;5030330;28;20202;-86
2022/04/30 00:12:25;;;;;;;3.53;1.48;;;18.30;99.90;;;;;;5032960;28;20191;-85
2022/04/30 00:14:56;;;;;;;3.53;1.20;;;18.40;99.90;;;;;;5031460;28;20230;-86
2022/04/30 00:17:29;;;;;;;5.53;1.20;;;18.40;99.90;;;;;;5033652;28;20563;-87
2022/04/30 00:20:00;;;;;;;2.85;1.30;;;18.30;99.90;;;;;;5024943;28;20199;-87
2022/04/30 00:22:30;;;;;;;1.98;1.10;;;18.30;99.90;;;;;;5031799;28;20195;-83
2022/04/30 00:25:01;;;;;;;2.92;1.33;;;18.30;99.90;;;;;;5032408;28;20777;-83
2022/04/30 00:27:34;;;;;;;1.55;0.95;;;18.30;99.90;;;;;;5033239;28;20236;-84
2022/04/30 00:30:05;;;;;;;1.85;0.90;;;18.30;99.90;;;;;;5031148;28;20661;-84
2022/04/30 00:32:37;;;;;;;1.58;0.68;;;18.30;99.90;;;;;;5031736;28;20539;-88
2022/04/30 00:35:08;;;;;;;4.10;2.17;;;18.20;99.90;;;;;;5029564;28;20214;-88
2022/04/30 00:37:39;;;;;;;2.65;1.70;;;18.20;99.90;;;;;;5026183;28;20194;-85
2022/04/30 00:40:11;;;;;;;1.00;0.90;;;18.20;99.90;;;;;;5032742;28;20187;-86
2022/04/30 00:42:41;;;;;;;2.60;0.90;;;18.00;99.90;;;;;;5029986;28;20666;-89
2022/04/30 00:45:13;;;;;;;1.85;0.98;;;18.20;99.90;;;;;;5025834;28;20206;-87
2022/04/30 00:47:45;;;;;;;0.70;0.70;;;18.20;99.90;;;;;;5030114;28;20256;-89
2022/04/30 00:50:18;;;;;;;4.30;0.90;;;18.10;99.90;;;;;;5031571;28;20233;-86
2022/04/30 00:52:50;;;;;;;1.98;0.85;;;18.10;99.90;;;;;;5030964;28;20253;-88
2022/04/30 00:55:24;;;;;;;3.10;1.20;;;18.10;99.90;;;;;;5031608;28;20681;-88
2022/04/30 00:58:01;;;;;;;1.05;0.70;;;18.10;99.90;;;;;;5031989;28;20251;-86
2022/04/30 01:00:33;;;;;;;0.80;0.80;;;18.10;99.90;;;;;;5022616;28;20202;-80
2022/04/30 01:03:09;;;;;;;2.42;0.90;;;18.10;99.90;;;;;;5038432;28;20208;-87
2022/04/30 01:05:40;;;;;;;1.23;0.80;;;18.10;99.90;;;;;;5036637;28;20204;-88
2022/04/30 01:08:11;;;;;;;1.52;0.77;;;18.10;99.90;;;;;;5039193;28;20198;-86
2022/04/30 01:10:41;;;;;;;1.10;0.80;;;18.00;99.90;;;;;;5030009;28;20201;-89
2022/04/30 01:13:13;;;;;;;2.55;0.70;;;18.00;99.90;;;;;;5029564;28;20574;-87
2022/04/30 01:15:43;;;;;;;0.80;0.80;;;18.00;99.90;;;;;;5025593;28;20195;-89
2022/04/30 01:18:16;;;;;;;1.52;0.80;;;18.10;99.90;;;;;;5024740;28;20202;-90
2022/04/30 01:20:52;;;;;;;2.38;0.90;;;18.10;99.90;;;;;;5032137;28;20202;-88
2022/04/30 01:23:26;;;;;;;2.13;1.00;;;18.10;99.90;;;;;;5031792;28;20232;-88
2022/04/30 01:25:57;;;;;;;2.28;0.90;;;18.10;99.90;;;;;;5031605;28;20270;-88
2022/04/30 01:28:28;;;;;;;1.63;1.13;;;18.20;99.90;;;;;;5029901;28;20257;-88
2022/04/30 01:30:58;;;;;;;1.27;0.80;;;18.20;99.90;;;;;;5030479;28;20248;-90
2022/04/30 01:39:04;;;;;;;1.70;0.70;;;18.20;99.90;;;;;;5030381;28;20205;-86
2022/04/30 01:41:35;;;;;;;1.52;0.80;;;18.20;99.90;;;;;;5031041;28;20200;-85
2022/04/30 01:44:06;;;;;;;1.75;1.02;;;18.20;99.90;;;;;;5020228;28;20205;-86
2022/04/30 01:46:36;;;;;;;3.05;2.15;;;18.20;99.90;;;;;;5030468;28;20248;-83
2022/04/30 01:49:07;;;;;;;3.08;1.90;;;18.20;99.90;;;;;;5030922;28;20197;-86
2022/04/30 01:51:38;;;;;;;2.83;1.70;;;18.10;99.90;;;;;;5027756;22;20288;-85
2022/04/30 01:54:11;;;;;;;2.47;1.13;;;18.20;99.90;;;;;;5002572;28;20222;-81
2022/04/30 01:56:41;;;;;;;1.35;0.90;;;18.20;99.90;;;;;;5018596;28;20190;-84
2022/04/30 01:59:12;;;;;;;2.67;0.98;;;18.20;99.90;;;;;;5019502;28;20233;-83
2022/04/30 02:01:44;;;;;;;4.15;2.40;;;18.20;99.90;;;;;;5013826;28;20199;-85
2022/04/30 02:04:15;;;;;;;2.40;1.10;;;18.20;99.90;;;;;;5020216;28;20190;-84
2022/04/30 02:06:46;;;;;;;2.35;0.80;;;18.20;99.90;;;;;;5019367;28;20194;-84
2022/04/30 02:09:19;;;;;;;1.88;0.80;;;18.20;99.90;;;;;;5014757;28;20252;-82
2022/04/30 02:11:51;;;;;;;2.25;0.90;;;18.20;99.90;;;;;;5017451;28;20195;-83
2022/04/30 02:14:22;;;;;;;3.75;1.10;;;18.20;99.90;;;;;;5026175;28;20277;-82
2022/04/30 02:16:53;;;;;;;4.00;1.10;;;18.30;99.90;;;;;;5023867;28;20353;-81
2022/04/30 02:19:25;;;;;;;2.55;0.60;;;18.20;99.90;;;;;;5017315;28;20257;-82
2022/04/30 02:21:57;;;;;;;1.35;0.70;;;18.30;99.90;;;;;;5015507;28;20191;-77
2022/04/30 02:24:31;;;;;;;3.40;1.40;;;18.20;99.90;;;;;;5015300;28;20282;-80
2022/04/30 02:27:02;;;;;;;0.98;0.70;;;18.20;99.90;;;;;;5016753;28;20532;-84
2022/04/30 02:29:33;;;;;;;2.22;0.85;;;18.20;99.90;;;;;;5006536;28;20202;-80
2022/04/30 02:32:03;;;;;;;1.58;0.80;;;18.20;99.90;;;;;;5017824;28;20210;-80
2022/04/30 02:34:34;;;;;;;2.75;0.80;;;18.20;99.90;;;;;;5024543;28;20689;-84
2022/04/30 02:37:05;;;;;;;1.95;0.80;;;18.30;99.90;;;;;;5012391;28;20195;-79
2022/04/30 02:39:38;;;;;;;2.38;0.90;;;18.30;99.90;;;;;;5014171;28;20729;-83
2022/04/30 02:42:09;;;;;;;3.30;0.70;;;18.30;99.90;;;;;;5016004;28;20195;-84
2022/04/30 02:44:39;;;;;;;1.60;0.90;;;18.30;99.90;;;;;;5025023;28;20202;-78
2022/04/30 02:47:10;;;;;;;1.60;0.90;;;18.30;99.90;;;;;;5028188;28;20257;-77
2022/04/30 02:49:41;;;;;;;0.85;0.85;;;18.30;99.90;;;;;;5020932;28;20206;-80
2022/04/30 02:52:11;;;;;;;1.25;0.80;;;18.30;99.90;;;;;;5024947;28;20706;-87
2022/04/30 02:54:44;;;;;;;1.48;0.90;;;18.30;99.90;;;;;;5001101;28;20227;-81
2022/04/30 02:57:15;;;;;;;2.38;1.05;;;18.30;99.90;;;;;;5018717;28;20265;-79
2022/04/30 02:59:56;;;;;;;2.75;1.08;;;18.40;99.90;;;;;;5015924;28;20198;-85
2022/04/30 03:02:28;;;;;;;1.75;1.20;;;18.40;99.90;;;;;;5028263;28;20285;-80
2022/04/30 03:04:58;;;;;;;1.85;1.30;;;18.40;99.90;;;;;;5014560;28;20222;-84
2022/04/30 03:07:29;;;;;;;3.70;1.48;;;18.40;99.90;;;;;;5014153;28;20198;-77
2022/04/30 03:10:01;;;;;;;2.83;1.48;;;18.40;99.90;;;;;;5018267;28;20252;-78
2022/04/30 03:12:32;;;;;;;3.60;1.30;;;18.40;99.90;;;;;;5005507;28;20658;-79
2022/04/30 03:15:03;;;;;;;4.25;1.55;;;18.40;99.90;;;;;;5007990;28;20700;-78
2022/04/30 03:23:07;;;;;;;1.65;1.55;;;18.40;99.90;;;;;;5026046;28;20312;-85
2022/04/30 03:25:39;;;;;;;3.95;1.65;;;18.40;99.90;;;;;;5032419;28;20191;-86
2022/04/30 03:28:10;;;;;;;2.53;1.30;;;18.40;99.90;;;;;;5023275;28;20745;-86
2022/04/30 03:30:41;;;;;;;2.42;1.60;;;18.40;99.90;;;;;;5011949;28;20191;-81
2022/04/30 03:33:11;;;;;;;7.25;2.08;;;18.50;99.90;;;;;;5023726;28;20203;-83
2022/04/30 03:35:42;;;;;;;6.68;2.60;;;18.50;99.90;;;;;;5016902;28;20219;-84
2022/04/30 03:38:13;;;;;;;9.45;2.95;;;18.50;99.90;;;;;;5003753;28;20191;-85
2022/04/30 03:40:45;;;;;;;6.13;2.58;;;18.60;99.90;;;;;;5014455;28;20194;-85
2022/04/30 03:43:18;;;;;;;4.25;2.22;;;18.60;99.90;;;;;;5014650;28;20257;-85
2022/04/30 03:45:48;;;;;;;7.50;2.40;;;18.60;99.90;;;;;;5017526;28;20268;-80
2022/04/30 03:48:19;;;;;;;3.95;1.92;;;18.70;99.90;;;;;;5015140;28;20191;-80
2022/04/30 03:50:50;;;;;;;4.03;2.28;;;18.70;99.90;;;;;;5019575;28;20281;-86
2022/04/30 03:53:20;;;;;;;5.75;1.70;;;18.80;99.90;;;;;;5018433;28;20726;-82
2022/04/30 03:55:53;;;;;;;7.65;4.00;;;18.80;99.90;;;;;;5011111;28;20223;-87
2022/04/30 03:58:23;;;;;;;6.47;3.00;;;18.70;99.90;;;;;;5006816;28;20673;-86
2022/04/30 04:00:54;;;;;;;5.55;3.78;;;18.80;99.90;;;;;;5013180;28;20206;-87
2022/04/30 04:03:25;;;;;;;4.07;2.75;;;18.80;99.90;;;;;;5013540;28;20198;-86
2022/04/30 04:05:57;;;;;;;4.35;2.22;;;18.90;99.90;;;;;;5009647;28;20207;-82
2022/04/30 04:08:28;;;;;;;3.83;2.10;;;18.90;99.90;;;;;;5012888;28;20209;-86
2022/04/30 04:11:01;;;;;;;4.07;2.35;;;18.80;99.90;;;;;;5011681;28;20563;-87
2022/04/30 04:19:04;;;;;;;2.33;1.75;;;18.90;99.90;;;;;;5014675;28;20654;-85
2022/04/30 04:21:35;;;;;;;6.85;4.55;;;18.90;99.90;;;;;;5014351;28;20196;-85
2022/04/30 04:26:54;;;;;;;40.45;26.45;;;18.90;99.90;;;;;;5008134;28;20673;-85
2022/04/30 04:29:25;;;;;;;19.00;12.85;;;18.90;99.90;;;;;;5011589;28;20191;-88
2022/04/30 04:31:56;;;;;;;18.02;12.30;;;19.00;99.90;;;;;;5010127;28;20222;-87
2022/04/30 04:34:26;;;;;;;80.28;48.15;;;19.00;99.90;;;;;;5010551;28;20222;-85
2022/04/30 04:36:57;;;;;;;8.02;4.60;;;19.00;99.90;;;;;;5013837;28;20187;-87
2022/04/30 04:39:27;;;;;;;3.80;2.35;;;19.00;99.90;;;;;;5012674;28;20206;-87
2022/04/30 04:42:00;;;;;;;8.27;4.25;;;19.00;99.90;;;;;;5008048;28;20318;-86
2022/04/30 04:44:31;;;;;;;6.50;2.70;;;19.00;99.90;;;;;;5002798;28;20205;-85
2022/04/30 04:47:02;;;;;;;6.63;4.28;;;19.00;99.90;;;;;;5007525;28;20242;-86
2022/04/30 04:49:34;;;;;;;5.38;3.30;;;19.00;99.90;;;;;;5014057;28;20195;-80
2022/04/30 04:52:05;;;;;;;4.47;3.28;;;19.10;99.90;;;;;;5004976;28;20292;-85
2022/04/30 04:54:36;;;;;;;8.85;5.55;;;19.10;99.90;;;;;;5013835;28;20218;-81
2022/04/30 04:57:08;;;;;;;7.55;3.30;;;19.20;99.90;;;;;;5013577;28;20198;-86
2022/04/30 04:59:39;;;;;;;5.30;3.40;;;19.20;99.90;;;;;;5011937;28;20237;-84
2022/04/30 05:02:10;;;;;;;5.20;2.80;;;19.30;99.90;;;;;;5013721;28;20202;-87
2022/04/30 05:04:41;;;;;;;3.10;1.80;;;19.30;99.90;;;;;;5013437;28;20251;-82
2022/04/30 05:07:11;;;;;;;3.20;1.67;;;19.30;99.90;;;;;;5012891;28;20203;-77
2022/04/30 05:09:42;;;;;;;4.22;2.40;;;19.30;99.90;;;;;;5009061;28;20316;-84
2022/04/30 05:12:15;;;;;;;5.03;3.08;;;19.40;99.90;;;;;;5009780;28;20210;-81
2022/04/30 05:14:46;;;;;;;4.00;2.03;;;19.40;99.90;;;;;;5027653;28;20225;-76
2022/04/30 05:17:17;;;;;;;4.03;2.40;;;19.40;99.90;;;;;;5011957;28;20205;-85
2022/04/30 05:19:47;;;;;;;5.22;1.70;;;19.40;99.90;;;;;;5015858;28;20245;-83
2022/04/30 05:22:18;;;;;;;1.77;1.48;;;19.50;99.90;;;;;;5011299;28;20223;-82
2022/04/30 05:24:49;;;;;;;5.13;2.80;;;19.50;99.90;;;;;;5024560;28;20201;-77
2022/04/30 05:27:21;;;;;;;3.40;1.40;;;19.50;99.90;;;;;;5011664;28;20290;-79
2022/04/30 05:29:52;;;;;;;1.75;0.77;;;19.50;99.90;;;;;;5009688;28;20246;-78
2022/04/30 05:32:22;;;;;;;2.30;1.02;;;19.40;99.90;;;;;;5023570;28;20198;-80
2022/04/30 05:34:53;;;;;;;1.10;1.00;;;19.40;99.90;;;;;;5018616;28;20265;-76
2022/04/30 05:37:24;;;;;;;1.35;1.20;;;19.50;99.90;;;;;;5014739;28;20196;-76
2022/04/30 05:39:54;;;;;;;2.08;1.10;;;19.50;99.90;;;;;;5018065;28;20985;-87
2022/04/30 05:42:27;;;;;;;2.88;1.25;;;19.50;99.90;;;;;;5017997;28;20253;-85
2022/04/30 05:44:58;;;;;;;1.83;1.17;;;19.50;99.90;;;;;;5023777;28;20211;-79
2022/04/30 05:47:29;;;;;;;2.20;0.88;;;19.50;99.90;;;;;;5009986;28;20195;-84
2022/04/30 05:49:59;;;;;;;1.75;1.05;;;19.60;99.90;;;;;;5026046;28;20198;-76
2022/04/30 05:52:30;;;;;;;2.97;1.00;;;19.60;99.90;;;;;;5020669;28;20234;-78
2022/04/30 05:55:01;;;;;;;2.03;0.90;;;19.60;99.90;;;;;;5019249;28;20306;-82
2022/04/30 05:57:34;;;;;;;2.15;1.00;;;19.60;99.90;;;;;;5025651;28;20199;-78
2022/04/30 06:00:05;;;;;;;2.05;1.00;;;19.60;99.90;;;;;;5020632;28;20198;-78
2022/04/30 06:02:36;;;;;;;1.75;0.90;;;19.60;99.90;;;;;;5021691;28;20282;-86
2022/04/30 06:05:08;;;;;;;3.03;1.13;;;19.70;99.90;;;;;;5027926;28;20212;-78
2022/04/30 06:07:38;;;;;;;1.35;1.08;;;19.70;99.90;;;;;;5024899;28;20203;-81
2022/04/30 06:10:10;;;;;;;1.42;0.95;;;19.70;99.90;;;;;;5023626;28;20191;-79
2022/04/30 06:12:42;;;;;;;2.15;1.02;;;19.70;99.90;;;;;;5023788;28;20199;-81
2022/04/30 06:15:13;;;;;;;2.03;0.98;;;19.60;99.90;;;;;;5022108;28;20214;-78
2022/04/30 06:17:44;;;;;;;2.60;1.02;;;19.60;99.90;;;;;;5017914;28;20195;-82
2022/04/30 06:20:15;;;;;;;1.15;0.90;;;19.60;99.90;;;;;;5012599;28;20202;-83
2022/04/30 06:22:45;;;;;;;2.20;0.80;;;19.60;99.90;;;;;;5026835;28;20256;-86
2022/04/30 06:25:16;;;;;;;1.35;0.90;;;19.60;99.90;;;;;;5019082;28;20233;-85
2022/04/30 06:27:49;;;;;;;6.47;2.13;;;19.60;99.90;;;;;;5013759;28;20199;-82
2022/04/30 06:30:19;;;;;;;3.40;1.83;;;19.60;99.90;;;;;;5021960;28;20606;-77
2022/04/30 06:32:50;;;;;;;2.53;1.50;;;19.60;99.90;;;;;;5020505;28;20203;-85
2022/04/30 06:35:21;;;;;;;2.45;1.20;;;19.50;99.90;;;;;;5025633;28;20217;-83
2022/04/30 06:37:51;;;;;;;3.35;1.80;;;19.50;99.90;;;;;;5019487;28;20653;-86
2022/04/30 06:40:22;;;;;;;1.90;1.15;;;19.60;99.90;;;;;;5018765;28;20206;-85
2022/04/30 06:42:55;;;;;;;3.83;1.52;;;19.50;99.90;;;;;;5022775;28;20541;-82
2022/04/30 06:45:25;;;;;;;3.83;2.13;;;19.50;99.90;;;;;;5015627;28;20195;-85
2022/04/30 06:47:56;;;;;;;3.72;1.52;;;19.40;99.90;;;;;;5023782;28;20199;-82
2022/04/30 06:50:26;;;;;;;2.33;1.50;;;19.40;99.90;;;;;;5025944;28;21961;-83
2022/04/30 06:58:41;;;;;;;2.58;2.05;;;19.20;99.90;;;;;;5019363;28;20555;-86
2022/04/30 07:01:37;;;;;;;4.32;1.88;;;19.20;99.90;;;;;;5023326;28;20194;-82
2022/04/30 07:04:09;;;;;;;5.03;1.80;;;19.20;99.90;;;;;;5021349;28;20279;-82
2022/04/30 07:06:40;;;;;;;1.70;1.50;;;19.00;99.90;;;;;;5021192;28;20194;-79
2022/04/30 07:09:12;;;;;;;4.57;2.47;;;18.90;99.90;;;;;;5016403;28;20191;-86
2022/04/30 07:11:43;;;;;;;3.50;2.13;;;18.70;99.90;;;;;;5016353;28;20222;-78
2022/04/30 07:14:15;;;;;;;3.08;2.00;;;18.70;99.90;;;;;;5018131;28;20240;-83
2022/04/30 07:16:46;;;;;;;4.32;2.17;;;18.70;99.90;;;;;;5025064;28;20227;-82
2022/04/30 07:19:16;;;;;;;2.72;2.15;;;18.60;99.90;;;;;;5022855;28;20595;-84
2022/04/30 07:21:47;;;;;;;3.20;2.00;;;18.60;99.90;;;;;;5016586;28;20718;-83
2022/04/30 07:24:17;;;;;;;3.28;2.00;;;18.60;99.90;;;;;;5017097;28;20245;-81
2022/04/30 07:26:48;;;;;;;2.83;2.08;;;18.50;99.90;;;;;;5018429;28;20199;-81
2022/04/30 07:29:21;;;;;;;3.28;2.00;;;18.40;99.90;;;;;;5023380;28;20249;-81
2022/04/30 07:31:51;;;;;;;3.13;2.20;;;18.30;99.90;;;;;;5019735;28;20209;-85
2022/04/30 07:34:22;;;;;;;2.97;1.95;;;18.20;99.90;;;;;;5023390;28;20201;-82
2022/04/30 07:36:53;;;;;;;2.78;2.38;;;18.20;99.90;;;;;;5019888;28;20224;-80
2022/04/30 07:39:24;;;;;;;3.85;2.72;;;18.10;99.90;;;;;;5022667;28;20253;-83
2022/04/30 07:41:55;;;;;;;5.43;3.15;;;18.20;99.90;;;;;;5020085;28;20226;-82
2022/04/30 07:44:30;;;;;;;4.25;2.67;;;18.10;99.90;;;;;;5023792;28;20194;-80
2022/04/30 07:47:00;;;;;;;4.30;2.83;;;18.00;99.90;;;;;;5022541;28;20193;-83
2022/04/30 07:49:31;;;;;;;4.88;3.38;;;18.00;99.90;;;;;;5018844;28;20194;-81
2022/04/30 07:52:02;;;;;;;6.68;3.55;;;17.90;99.90;;;;;;5015909;28;20650;-86
2022/04/30 07:54:32;;;;;;;5.85;3.33;;;17.80;99.90;;;;;;5023611;28;20194;-85
2022/04/30 07:57:03;;;;;;;4.70;2.97;;;17.80;99.90;;;;;;5020097;28;20219;-85
2022/04/30 07:59:35;;;;;;;5.00;3.08;;;17.80;99.90;;;;;;5018973;28;20252;-79
2022/04/30 08:02:06;;;;;;;10.30;6.40;;;17.80;99.90;;;;;;5024203;28;20662;-86
2022/04/30 08:04:37;;;;;;;9.93;7.35;;;17.80;99.90;;;;;;5020531;28;20657;-83
2022/04/30 08:07:07;;;;;;;9.40;6.60;;;17.70;99.90;;;;;;5018557;28;20656;-83
2022/04/30 08:09:38;;;;;;;8.05;5.88;;;17.70;99.90;;;;;;5020655;28;20206;-80
2022/04/30 08:12:10;;;;;;;9.23;5.18;;;17.60;99.90;;;;;;5024398;28;20191;-84
2022/04/30 08:14:44;;;;;;;6.60;4.40;;;17.60;99.90;;;;;;5018623;28;20633;-78
2022/04/30 08:17:14;;;;;;;7.80;4.43;;;17.60;99.90;;;;;;5027516;28;20218;-82
2022/04/30 08:19:45;;;;;;;6.18;4.38;;;17.60;99.90;;;;;;5020601;28;20191;-76
2022/04/30 08:22:16;;;;;;;6.18;3.33;;;17.60;99.90;;;;;;5015787;28;20653;-79
2022/04/30 08:24:47;;;;;;;3.70;2.45;;;17.60;99.90;;;;;;5012303;28;20202;-78
2022/04/30 08:27:18;;;;;;;3.65;2.80;;;17.60;99.90;;;;;;5019285;28;20285;-76
2022/04/30 08:29:50;;;;;;;4.75;3.30;;;17.60;99.90;;;;;;5010805;28;20416;-79
2022/04/30 08:32:21;;;;;;;4.78;3.20;;;17.50;99.90;;;;;;5016612;28;20595;-83
2022/04/30 08:34:52;;;;;;;4.78;3.22;;;17.40;99.90;;;;;;5017175;28;20206;-83
2022/04/30 08:37:23;;;;;;;5.40;3.30;;;17.40;99.90;;;;;;5011328;28;20226;-78
2022/04/30 08:39:54;;;;;;;6.07;3.17;;;17.40;99.90;;;;;;5023219;28;20202;-75
2022/04/30 08:42:26;;;;;;;5.10;2.88;;;17.50;99.90;;;;;;5011262;28;20662;-81
2022/04/30 08:44:59;;;;;;;4.35;2.65;;;17.50;99.90;;;;;;5012232;28;20654;-76
2022/04/30 08:47:31;;;;;;;4.80;2.67;;;17.50;99.90;;;;;;5018249;28;20608;-84
2022/04/30 08:50:04;;;;;;;4.50;2.90;;;17.50;99.90;;;;;;5022151;28;20244;-85
2022/04/30 08:52:34;;;;;;;5.57;3.30;;;17.50;99.90;;;;;;5018873;28;20694;-83
2022/04/30 08:55:05;;;;;;;6.70;3.00;;;17.50;99.90;;;;;;5022041;28;20257;-85
2022/04/30 08:57:36;;;;;;;6.35;2.70;;;17.50;99.90;;;;;;5017016;28;20231;-83
2022/04/30 09:00:09;;;;;;;4.65;2.80;;;17.40;99.90;;;;;;5010036;28;20260;-85
2022/04/30 09:02:50;;;;;;;4.00;2.47;;;17.50;99.90;;;;;;5019576;28;20211;-85
2022/04/30 09:05:21;;;;;;;4.47;2.72;;;17.50;99.90;;;;;;5017214;28;20187;-84
2022/04/30 09:07:58;;;;;;;5.68;2.40;;;17.50;99.90;;;;;;5019746;28;20198;-84
2022/04/30 09:10:30;;;;;;;4.07;2.40;;;17.50;99.90;;;;;;5020399;28;20190;-85
2022/04/30 09:13:09;;;;;;;3.97;2.60;;;17.50;99.90;;;;;;5018620;28;20654;-84
2022/04/30 09:15:44;;;;;;;3.90;2.47;;;17.50;99.90;;;;;;5019955;28;20217;-85
2022/04/30 09:18:17;;;;;;;3.53;2.70;;;17.50;99.90;;;;;;5019251;28;20190;-85
2022/04/30 09:20:49;;;;;;;4.50;2.65;;;17.50;99.90;;;;;;5016516;28;20214;-85
2022/04/30 09:23:30;;;;;;;3.65;2.88;;;17.50;99.90;;;;;;5010920;28;20225;-85
2022/04/30 09:26:05;;;;;;;5.18;2.83;;;17.50;99.90;;;;;;5021836;28;20280;-86
2022/04/30 09:28:37;;;;;;;4.95;3.10;;;17.40;99.90;;;;;;5011654;28;20203;-84
2022/04/30 09:31:13;;;;;;;6.78;3.40;;;17.50;99.90;;;;;;5016525;28;20854;-84
2022/04/30 09:33:57;;;;;;;4.65;3.45;;;17.40;99.90;;;;;;5013658;28;20591;-84
2022/04/30 09:39:15;;;;;;;9.73;5.10;;;17.20;99.90;;;;;;5011142;28;20197;-83
2022/04/30 09:41:46;;;;;;;9.98;5.18;;;17.20;99.90;;;;;;5015942;28;20277;-84
2022/04/30 09:44:18;;;;;;;8.85;4.68;;;17.20;99.90;;;;;;5020632;28;20186;-82
2022/04/30 09:46:52;;;;;;;11.63;4.70;;;17.20;99.90;;;;;;5013210;28;20197;-79
2022/04/30 09:54:57;;;;;;;6.57;3.88;;;17.00;99.90;;;;;;5015917;28;20206;-82
2022/04/30 09:57:28;;;;;;;4.80;2.92;;;17.00;99.90;;;;;;5015090;28;20222;-82
2022/04/30 09:59:59;;;;;;;6.03;2.88;;;17.00;99.90;;;;;;5014123;28;20191;-82
2022/04/30 10:02:33;;;;;;;6.63;3.20;;;17.00;99.90;;;;;;5017586;28;20666;-79
2022/04/30 10:05:06;;;;;;;3.58;2.30;;;17.00;99.90;;;;;;5014154;28;20256;-82
2022/04/30 10:07:37;;;;;;;3.75;1.98;;;16.90;99.90;;;;;;5024833;28;20611;-83
2022/04/30 10:10:16;;;;;;;3.92;2.17;;;16.90;99.90;;;;;;5018142;28;20542;-81
2022/04/30 10:12:52;;;;;;;4.55;2.20;;;17.00;99.90;;;;;;5012083;28;20257;-83
2022/04/30 10:15:30;;;;;;;4.18;1.70;;;16.90;99.90;;;;;;5018700;28;20206;-80
2022/04/30 10:18:07;;;;;;;4.35;1.80;;;16.90;99.90;;;;;;5011901;28;20619;-81
2022/04/30 10:20:38;;;;;;;4.47;1.50;;;16.90;99.90;;;;;;5016116;28;20213;-81
2022/04/30 10:23:09;;;;;;;3.65;1.50;;;16.90;99.90;;;;;;5015818;28;20202;-83
2022/04/30 10:25:44;;;;;;;4.55;1.50;;;16.90;99.90;;;;;;5012461;28;20195;-83
2022/04/30 10:28:22;;;;;;;3.92;1.40;;;16.80;99.90;;;;;;5019343;28;20236;-83
2022/04/30 10:31:02;;;;;;;3.80;1.30;;;16.80;99.90;;;;;;5016768;28;20333;-83
2022/04/30 10:33:36;;;;;;;2.50;1.10;;;16.80;99.90;;;;;;5019578;28;20241;-80
2022/04/30 10:36:10;;;;;;;2.90;1.42;;;16.70;99.90;;;;;;5020460;28;20194;-83
2022/04/30 10:38:42;;;;;;;2.92;1.27;;;16.70;99.90;;;;;;5018000;28;20187;-82
2022/04/30 10:41:13;;;;;;;2.47;1.27;;;16.60;99.90;;;;;;5019775;28;20234;-82
2022/04/30 10:43:45;;;;;;;3.00;1.20;;;16.60;99.90;;;;;;5021917;28;20186;-83
2022/04/30 10:46:25;;;;;;;1.40;1.10;;;16.50;99.90;;;;;;5018774;28;20277;-82
2022/04/30 10:48:58;;;;;;;3.17;1.20;;;16.50;99.90;;;;;;5015624;28;20205;-83
2022/04/30 10:51:40;;;;;;;1.38;0.90;;;16.50;99.90;;;;;;5022561;28;20222;-83
2022/04/30 10:54:13;;;;;;;2.90;1.17;;;16.40;99.90;;;;;;5022545;28;20612;-81
2022/04/30 10:56:44;;;;;;;2.53;1.10;;;16.40;99.90;;;;;;5020980;28;20248;-82
2022/04/30 10:59:26;;;;;;;1.65;0.90;;;16.40;99.90;;;;;;5014701;28;20195;-83
2022/04/30 11:01:57;;;;;;;2.30;0.80;;;16.40;99.90;;;;;;5020839;28;20286;-82
2022/04/30 11:04:29;;;;;;;2.40;1.00;;;16.40;99.90;;;;;;5015364;28;20191;-82
2022/04/30 11:07:01;;;;;;;3.20;0.90;;;16.40;99.90;;;;;;5018940;28;20719;-84
2022/04/30 11:09:32;;;;;;;1.75;1.00;;;16.30;99.90;;;;;;5009132;28;20198;-81
2022/04/30 11:12:03;;;;;;;3.30;1.00;;;16.30;99.90;;;;;;5015167;28;20270;-83
2022/04/30 11:14:34;;;;;;;2.08;0.82;;;16.30;99.90;;;;;;5030518;28;20570;-79
2022/04/30 11:17:04;;;;;;;4.00;1.00;;;16.20;99.90;;;;;;5020583;28;20221;-82
2022/04/30 11:19:43;;;;;;;3.92;1.13;;;16.20;99.90;;;;;;5011108;28;20658;-77
2022/04/30 11:22:14;;;;;;;1.55;0.70;;;16.20;99.90;;;;;;5018849;28;20191;-80
2022/04/30 11:24:45;;;;;;;1.50;0.85;;;16.20;99.90;;;;;;5022257;28;20642;-80
2022/04/30 11:27:16;;;;;;;2.47;0.80;;;16.10;99.90;;;;;;5021814;28;20249;-82
2022/04/30 11:29:53;;;;;;;1.63;0.80;;;16.10;99.90;;;;;;5023142;28;20198;-77
2022/04/30 11:32:26;;;;;;;3.05;0.90;;;16.20;99.90;;;;;;5025920;28;20194;-83
2022/04/30 11:35:03;;;;;;;3.20;0.90;;;16.10;99.90;;;;;;5023498;28;20213;-81
2022/04/30 11:37:42;;;;;;;1.40;0.80;;;16.10;99.90;;;;;;5014890;28;20218;-80
2022/04/30 11:40:14;;;;;;;2.10;0.90;;;16.10;99.90;;;;;;5018869;28;20191;-83
2022/04/30 11:42:44;;;;;;;1.42;0.98;;;16.10;99.90;;;;;;5029384;28;20183;-81
2022/04/30 11:45:25;;;;;;;1.98;0.85;;;16.10;99.90;;;;;;5016786;28;20261;-81
2022/04/30 11:47:56;;;;;;;1.85;1.00;;;16.10;99.90;;;;;;5014094;28;20194;-78
2022/04/30 11:50:29;;;;;;;1.77;1.08;;;16.10;99.90;;;;;;5014006;28;20199;-81
2022/04/30 11:53:00;;;;;;;2.08;1.00;;;16.00;99.90;;;;;;5023311;28;20249;-83
2022/04/30 11:55:32;;;;;;;3.40;1.00;;;16.00;99.90;;;;;;5028468;28;20199;-83
2022/04/30 11:58:06;;;;;;;1.42;0.80;;;16.10;99.90;;;;;;5014456;28;20215;-84
2022/04/30 12:00:38;;;;;;;2.45;0.90;;;16.00;99.90;;;;;;5014913;28;20198;-82
2022/04/30 12:03:09;;;;;;;2.38;0.80;;;16.00;99.90;;;;;;5010820;28;20195;-82
2022/04/30 12:05:45;;;;;;;1.83;0.95;;;16.00;99.90;;;;;;5003760;28;20195;-82
2022/04/30 12:08:16;;;;;;;2.95;1.10;;;15.90;99.90;;;;;;4995032;28;20265;-82
2022/04/30 12:10:56;;;;;;;3.75;0.98;;;15.90;99.90;;;;;;4995025;28;20199;-82
2022/04/30 12:13:28;;;;;;;2.08;0.95;;;15.90;99.90;;;;;;5010363;28;20199;-83
2022/04/30 12:16:06;;;;;;;2.83;1.00;;;15.90;99.90;;;;;;5014258;28;20198;-81
2022/04/30 12:27:02;;;;;;;2.65;0.90;;;15.80;99.90;;;;;;5016926;28;20202;-82
2022/04/30 12:29:35;;;;;;;2.00;0.93;;;15.80;99.90;;;;;;5013541;28;20191;-81
2022/04/30 12:32:08;;;;;;;3.60;0.80;;;15.70;99.90;;;;;;5010460;28;20576;-81
2022/04/30 12:34:42;;;;;;;2.45;0.98;;;15.70;99.90;;;;;;5023785;28;20647;-83
2022/04/30 12:37:15;;;;;;;2.45;0.80;;;15.70;99.90;;;;;;5012716;28;20222;-82
2022/04/30 12:39:46;;;;;;;1.17;0.80;;;15.70;99.90;;;;;;5009586;28;20196;-82
2022/04/30 12:42:17;;;;;;;3.88;1.08;;;15.60;99.90;;;;;;5007924;28;20201;-82
2022/04/30 12:44:48;;;;;;;3.17;1.20;;;15.60;99.90;;;;;;5012780;28;20203;-81
2022/04/30 12:47:18;;;;;;;4.82;0.90;;;15.60;99.90;;;;;;5012653;28;20249;-82
2022/04/30 12:49:49;;;;;;;3.05;0.75;;;15.60;99.90;;;;;;5013306;28;20203;-81
2022/04/30 12:52:22;;;;;;;4.10;1.10;;;15.60;99.90;;;;;;5013187;28;20242;-77
2022/04/30 12:54:52;;;;;;;2.75;0.80;;;15.60;99.90;;;;;;5000828;28;20183;-82
2022/04/30 12:57:23;;;;;;;3.28;1.00;;;15.50;99.90;;;;;;5013911;28;20261;-79
2022/04/30 12:59:54;;;;;;;5.40;1.10;;;15.50;99.90;;;;;;5022247;28;20571;-79
2022/04/30 13:02:24;;;;;;;3.95;0.80;;;15.50;99.90;;;;;;5016323;28;20214;-83
2022/04/30 13:04:55;;;;;;;2.42;1.02;;;15.40;99.90;;;;;;5013921;28;20195;-82
2022/04/30 13:07:28;;;;;;;3.33;1.13;;;15.40;99.90;;;;;;5020964;28;20234;-82
2022/04/30 13:15:32;;;;;;;2.22;0.90;;;15.30;99.90;;;;;;5011376;28;20244;-81
2022/04/30 13:18:03;;;;;;;2.38;1.02;;;15.30;99.90;;;;;;5013616;28;20231;-81
2022/04/30 13:20:34;;;;;;;1.90;0.90;;;15.30;99.90;;;;;;5013702;28;20241;-81
2022/04/30 13:23:07;;;;;;;3.03;0.93;;;15.20;99.90;;;;;;5012135;28;20627;-82
2022/04/30 13:25:38;;;;;;;2.45;1.00;;;15.20;99.90;;;;;;5013707;28;20602;-81
2022/04/30 13:28:09;;;;;;;2.67;0.90;;;15.20;99.90;;;;;;5012221;28;20198;-81
2022/04/30 13:30:39;;;;;;;2.55;1.20;;;15.10;99.90;;;;;;5032659;28;20536;-82
2022/04/30 13:33:10;;;;;;;4.80;0.90;;;15.10;99.90;;;;;;5015874;28;20257;-82
2022/04/30 13:35:41;;;;;;;2.28;0.98;;;15.10;99.90;;;;;;5013130;28;20242;-79
2022/04/30 13:38:13;;;;;;;2.97;1.08;;;15.10;99.90;;;;;;5010465;28;20641;-80
2022/04/30 13:40:44;;;;;;;2.03;0.85;;;15.00;99.90;;;;;;5033065;28;20210;-81
2022/04/30 13:43:15;;;;;;;2.28;1.10;;;15.00;99.90;;;;;;5025907;28;20195;-82
2022/04/30 13:45:45;;;;;;;1.38;0.80;;;14.90;99.90;;;;;;5019888;28;20587;-82
2022/04/30 13:48:16;;;;;;;2.78;0.85;;;14.90;99.90;;;;;;5013652;28;20635;-81
2022/04/30 13:50:48;;;;;;;1.83;0.80;;;14.80;99.90;;;;;;5013852;28;20271;-83
2022/04/30 13:53:21;;;;;;;2.72;0.80;;;14.80;99.90;;;;;;5011140;28;20290;-83
2022/04/30 13:55:51;;;;;;;1.98;0.82;;;14.80;99.90;;;;;;5012674;28;20191;-82
2022/04/30 13:58:22;;;;;;;5.32;1.00;;;14.80;99.90;;;;;;5012215;28;20227;-83